Time;durP1;ratioP1;P1;durP2;ratioP2;P2;SDS_P1;SDS_P2;PMS_P1;PMS_P2;Temp;Humidity;BMP_temperature;BMP_pressure;BME280_temperature;BME280_humidity;BME280_pressure;Samples;Min_cycle;Max_cycle;Signal;HPM_P1;HPM_P2
2023/07/02 00:02:07;;;;;;;8.00;5.18;;;16.00;99.90;;;;;;5171711;23;20257;-96
2023/07/02 00:04:33;;;;;;;8.70;4.72;;;16.00;99.90;;;;;;4998263;28;20179;-95
2023/07/02 00:07:04;;;;;;;8.52;4.78;;;16.00;99.90;;;;;;4997457;28;20176;-96
2023/07/02 00:09:37;;;;;;;8.05;4.53;;;16.00;99.90;;;;;;5004089;28;20172;-96
2023/07/02 00:12:03;;;;;;;8.88;4.90;;;16.00;99.90;;;;;;5001004;28;20190;-92
2023/07/02 00:14:34;;;;;;;9.70;5.28;;;16.00;99.90;;;;;;4998770;28;20180;-95
2023/07/02 00:17:00;;;;;;;8.13;4.80;;;16.00;99.90;;;;;;4999817;28;20303;-95
2023/07/02 00:19:26;;;;;;;8.48;4.68;;;16.00;99.90;;;;;;5000450;28;20187;-95
2023/07/02 00:21:53;;;;;;;10.82;5.68;;;16.00;99.90;;;;;;4999412;28;20191;-94
2023/07/02 00:24:36;;;;;;;8.73;5.40;;;16.00;99.90;;;;;;4999539;28;20179;-93
2023/07/02 00:27:05;;;;;;;11.43;5.50;;;16.00;99.90;;;;;;4998573;28;20186;-95
2023/07/02 00:29:31;;;;;;;7.03;5.43;;;16.00;99.90;;;;;;4998409;28;20186;-94
2023/07/02 00:31:57;;;;;;;7.50;5.45;;;16.00;99.90;;;;;;4999309;28;20270;-93
2023/07/02 00:34:29;;;;;;;9.13;5.60;;;16.10;99.90;;;;;;4999232;28;20633;-96
2023/07/02 00:37:15;;;;;;;7.82;5.35;;;16.00;99.90;;;;;;5000286;28;20203;-96
2023/07/02 00:39:41;;;;;;;10.43;5.10;;;16.00;99.90;;;;;;4998474;28;20186;-95
2023/07/02 00:42:11;;;;;;;8.93;5.03;;;16.00;99.90;;;;;;4999061;28;20495;-96
2023/07/02 00:44:45;;;;;;;9.10;5.07;;;16.00;99.90;;;;;;4998319;28;20583;-96
2023/07/02 00:47:16;;;;;;;7.65;5.22;;;16.00;99.90;;;;;;4999363;28;20599;-96
2023/07/02 00:49:42;;;;;;;9.90;4.70;;;16.10;99.90;;;;;;5000052;28;20278;-96
2023/07/02 00:52:07;;;;;;;8.70;4.65;;;16.00;99.90;;;;;;4999238;28;20270;-94
2023/07/02 00:54:37;;;;;;;6.75;4.50;;;16.00;99.90;;;;;;4998893;28;20179;-95
2023/07/02 00:57:13;;;;;;;10.40;5.25;;;16.00;99.90;;;;;;4998607;28;20237;-96
2023/07/02 00:59:44;;;;;;;10.75;5.10;;;16.00;99.90;;;;;;4999702;28;20561;-94
2023/07/02 01:02:10;;;;;;;5.18;4.30;;;16.00;99.90;;;;;;5000816;28;20231;-94
2023/07/02 01:04:37;;;;;;;9.40;4.45;;;16.00;99.90;;;;;;5002297;28;20179;-96
2023/07/02 01:07:08;;;;;;;6.05;4.20;;;16.00;99.90;;;;;;5000225;28;20175;-94
2023/07/02 01:09:34;;;;;;;7.63;4.22;;;16.00;99.90;;;;;;4998638;28;20183;-95
2023/07/02 01:12:15;;;;;;;12.32;4.63;;;16.00;99.90;;;;;;5001129;28;20171;-96
2023/07/02 01:14:54;;;;;;;7.35;3.65;;;16.00;99.90;;;;;;4999082;28;20206;-95
2023/07/02 01:17:20;;;;;;;7.72;3.85;;;15.90;99.90;;;;;;5001120;28;20553;-95
2023/07/02 01:19:51;;;;;;;5.35;3.95;;;16.00;99.90;;;;;;4999381;28;20182;-94
2023/07/02 01:22:30;;;;;;;8.52;3.67;;;16.00;99.90;;;;;;4999620;28;20205;-95
2023/07/02 01:24:58;;;;;;;4.90;3.70;;;16.00;99.90;;;;;;4998878;28;20174;-96
2023/07/02 01:27:24;;;;;;;6.20;3.53;;;15.90;99.90;;;;;;4987421;28;20638;-96
2023/07/02 01:29:55;;;;;;;10.07;3.70;;;15.90;99.90;;;;;;4981183;28;20191;-96
2023/07/02 01:32:22;;;;;;;6.70;3.50;;;15.90;99.90;;;;;;4981136;28;20184;-90
2023/07/02 01:34:53;;;;;;;5.93;3.78;;;15.90;99.90;;;;;;4979981;28;20238;-96
2023/07/02 01:37:24;;;;;;;6.38;3.50;;;15.90;99.90;;;;;;4979661;28;20261;-96
2023/07/02 01:39:56;;;;;;;7.82;3.50;;;15.90;99.90;;;;;;4980035;28;20188;-95
2023/07/02 01:42:29;;;;;;;10.05;3.55;;;15.80;99.90;;;;;;4995116;28;20227;-94
2023/07/02 01:44:55;;;;;;;11.13;3.47;;;15.80;99.90;;;;;;4980013;28;20176;-95
2023/07/02 01:47:21;;;;;;;9.57;3.30;;;15.80;99.90;;;;;;4978777;28;20255;-93
2023/07/02 01:49:47;;;;;;;5.80;3.22;;;15.70;99.90;;;;;;4978999;28;20210;-95
2023/07/02 01:52:13;;;;;;;10.98;3.30;;;15.70;99.90;;;;;;4978752;28;20238;-93
2023/07/02 01:54:45;;;;;;;10.77;3.38;;;15.60;99.90;;;;;;4978779;28;20187;-95
2023/07/02 01:57:10;;;;;;;8.70;3.38;;;15.60;99.90;;;;;;4989577;28;20234;-93
2023/07/02 01:59:36;;;;;;;7.97;3.03;;;15.60;99.90;;;;;;4997191;28;20194;-93
2023/07/02 02:02:02;;;;;;;12.82;3.47;;;15.60;99.90;;;;;;4996925;28;20238;-94
2023/07/02 02:04:39;;;;;;;9.07;3.67;;;15.50;99.90;;;;;;4997002;28;20202;-96
2023/07/02 02:07:08;;;;;;;6.45;2.70;;;15.50;99.90;;;;;;4997985;28;20179;-93
2023/07/02 02:09:34;;;;;;;5.60;2.80;;;15.50;99.90;;;;;;4997563;28;20270;-93
2023/07/02 02:12:00;;;;;;;9.30;3.10;;;15.50;99.90;;;;;;4997148;28;20281;-91
2023/07/02 02:14:26;;;;;;;7.93;3.00;;;15.50;99.90;;;;;;5014683;28;20187;-96
2023/07/02 02:16:52;;;;;;;10.25;2.78;;;15.50;99.90;;;;;;4997249;28;20203;-92
2023/07/02 02:19:21;;;;;;;8.95;3.00;;;15.40;99.90;;;;;;4997108;28;20249;-94
2023/07/02 02:21:46;;;;;;;6.72;2.80;;;15.40;99.90;;;;;;5000986;28;20175;-92
2023/07/02 02:24:17;;;;;;;9.38;2.58;;;15.40;99.90;;;;;;5000591;28;20258;-94
2023/07/02 02:26:42;;;;;;;7.30;2.80;;;15.40;99.90;;;;;;5000361;28;20187;-92
2023/07/02 02:29:08;;;;;;;8.05;2.88;;;15.30;99.90;;;;;;5000581;28;20171;-91
2023/07/02 02:31:34;;;;;;;10.85;2.67;;;15.30;99.90;;;;;;5000896;28;20629;-93
2023/07/02 02:34:00;;;;;;;7.47;2.83;;;15.30;99.90;;;;;;5000379;28;20179;-94
2023/07/02 02:36:25;;;;;;;9.02;2.75;;;15.20;99.90;;;;;;5000315;28;20237;-91
2023/07/02 02:38:51;;;;;;;6.95;2.47;;;15.20;99.90;;;;;;5000224;28;20264;-95
2023/07/02 02:41:20;;;;;;;5.85;2.53;;;15.20;99.90;;;;;;5000282;28;20301;-92
2023/07/02 02:43:46;;;;;;;4.82;2.90;;;15.20;99.90;;;;;;5000456;28;20214;-94
2023/07/02 02:46:12;;;;;;;8.35;2.78;;;15.10;99.90;;;;;;4999993;28;20213;-92
2023/07/02 02:48:37;;;;;;;8.07;3.15;;;15.10;99.90;;;;;;5000738;28;20175;-91
2023/07/02 02:51:03;;;;;;;13.43;3.35;;;15.10;99.90;;;;;;5000101;28;20171;-95
2023/07/02 02:53:29;;;;;;;10.00;3.65;;;15.00;99.90;;;;;;4999488;28;20198;-91
2023/07/02 02:56:02;;;;;;;12.25;3.90;;;15.00;99.90;;;;;;5000057;28;20210;-88
2023/07/02 02:58:28;;;;;;;9.90;3.17;;;15.10;99.90;;;;;;5000022;28;20183;-96
2023/07/02 03:00:53;;;;;;;5.00;2.70;;;15.10;99.90;;;;;;4999380;28;20179;-95
2023/07/02 03:03:20;;;;;;;8.02;3.45;;;15.10;99.90;;;;;;5000202;28;20187;-94
2023/07/02 03:05:48;;;;;;;10.65;2.88;;;15.10;99.90;;;;;;4999811;28;20186;-93
2023/07/02 03:08:14;;;;;;;10.93;3.05;;;15.10;99.90;;;;;;4999999;28;20175;-91
2023/07/02 03:10:40;;;;;;;8.68;3.65;;;15.20;99.90;;;;;;4999999;28;20193;-93
2023/07/02 03:13:08;;;;;;;8.88;3.00;;;15.20;99.90;;;;;;4999334;28;20544;-94
2023/07/02 03:15:40;;;;;;;3.80;2.60;;;15.20;99.90;;;;;;5000333;28;20233;-92
2023/07/02 03:18:06;;;;;;;11.60;2.70;;;15.20;99.90;;;;;;4999709;28;20232;-90
2023/07/02 03:20:37;;;;;;;8.75;3.13;;;15.20;99.90;;;;;;5000656;28;20175;-95
2023/07/02 03:23:03;;;;;;;9.93;3.38;;;15.20;99.90;;;;;;4999589;28;20237;-90
2023/07/02 03:25:29;;;;;;;9.07;3.20;;;15.20;99.90;;;;;;4999753;28;20175;-94
2023/07/02 03:27:55;;;;;;;9.02;3.08;;;15.20;99.90;;;;;;4999253;28;20249;-95
2023/07/02 03:30:20;;;;;;;7.53;3.42;;;15.20;99.90;;;;;;4999544;28;20181;-91
2023/07/02 03:32:46;;;;;;;11.48;4.15;;;15.20;99.90;;;;;;4998754;28;20560;-94
2023/07/02 03:35:13;;;;;;;6.55;3.10;;;15.20;99.90;;;;;;4999203;28;20226;-95
2023/07/02 03:37:43;;;;;;;9.93;3.58;;;15.20;99.90;;;;;;4999137;28;20316;-91
2023/07/02 03:40:09;;;;;;;8.40;3.63;;;15.20;99.90;;;;;;5000042;28;20207;-93
2023/07/02 03:42:35;;;;;;;11.93;3.92;;;15.20;99.90;;;;;;4999123;28;20198;-96
2023/07/02 03:45:07;;;;;;;7.68;3.88;;;15.20;99.90;;;;;;4999419;28;20238;-94
2023/07/02 03:47:33;;;;;;;7.55;3.60;;;15.20;99.90;;;;;;4999634;28;20167;-93
2023/07/02 03:49:59;;;;;;;12.73;3.60;;;15.30;99.90;;;;;;4998913;28;21138;-96
2023/07/02 03:52:26;;;;;;;7.75;3.65;;;15.30;99.90;;;;;;4999047;28;20683;-94
2023/07/02 03:54:55;;;;;;;10.32;3.60;;;15.30;99.90;;;;;;4999815;28;20186;-96
2023/07/02 03:57:26;;;;;;;8.27;3.20;;;15.30;99.90;;;;;;4998947;28;20219;-96
2023/07/02 03:59:51;;;;;;;7.57;3.42;;;15.30;99.90;;;;;;4999012;28;20556;-94
2023/07/02 04:02:17;;;;;;;5.18;3.25;;;15.30;99.90;;;;;;4998402;28;20685;-94
2023/07/02 04:04:46;;;;;;;7.00;3.30;;;15.30;99.90;;;;;;4999382;28;20179;-95
2023/07/02 04:07:15;;;;;;;10.95;3.35;;;15.40;99.90;;;;;;4999119;28;20243;-94
2023/07/02 04:09:41;;;;;;;5.80;2.90;;;15.40;99.90;;;;;;4998574;28;20179;-95
2023/07/02 04:12:07;;;;;;;7.75;3.17;;;15.40;99.90;;;;;;4998389;28;20182;-94
2023/07/02 04:14:35;;;;;;;6.55;3.15;;;15.30;99.90;;;;;;4998759;28;20203;-95
2023/07/02 04:17:07;;;;;;;7.25;3.28;;;15.40;99.90;;;;;;4998669;28;20210;-95
2023/07/02 04:19:33;;;;;;;11.82;3.78;;;15.50;99.90;;;;;;4998633;28;20637;-95
2023/07/02 04:22:02;;;;;;;6.57;3.40;;;15.50;99.90;;;;;;4999127;28;20183;-94
2023/07/02 04:24:28;;;;;;;4.57;2.97;;;15.60;99.90;;;;;;4998468;28;20176;-95
2023/07/02 04:26:58;;;;;;;11.27;3.72;;;15.60;99.90;;;;;;4998679;28;20282;-93
2023/07/02 04:29:26;;;;;;;11.60;3.60;;;15.60;99.90;;;;;;4998200;28;20234;-96
2023/07/02 04:31:52;;;;;;;10.60;3.67;;;15.70;99.90;;;;;;4998385;28;20217;-94
2023/07/02 04:34:17;;;;;;;7.45;3.60;;;15.70;99.90;;;;;;4998640;28;20195;-94
2023/07/02 04:36:44;;;;;;;9.18;3.15;;;15.70;99.90;;;;;;4998343;28;20226;-95
2023/07/02 04:39:12;;;;;;;8.68;3.45;;;15.70;99.90;;;;;;4998668;28;20275;-95
2023/07/02 04:41:40;;;;;;;8.85;3.50;;;15.70;99.90;;;;;;4999264;28;20183;-96
2023/07/02 04:44:06;;;;;;;5.80;3.17;;;15.70;99.90;;;;;;4997223;28;20171;-96
2023/07/02 04:46:35;;;;;;;5.68;3.58;;;15.70;99.90;;;;;;5000586;28;20179;-95
2023/07/02 04:49:03;;;;;;;7.65;3.60;;;15.70;99.90;;;;;;4998858;28;20606;-95
2023/07/02 04:51:29;;;;;;;8.35;3.90;;;15.70;99.90;;;;;;4998601;28;20198;-96
2023/07/02 04:53:55;;;;;;;7.75;4.25;;;15.70;99.90;;;;;;5000081;28;20175;-96
2023/07/02 04:56:21;;;;;;;9.75;3.50;;;15.70;99.90;;;;;;5000163;28;20221;-96
2023/07/02 04:58:46;;;;;;;8.82;3.88;;;15.60;99.90;;;;;;4998464;28;20524;-94
2023/07/02 05:01:12;;;;;;;8.30;4.10;;;15.60;99.90;;;;;;5002768;28;20234;-96
2023/07/02 05:03:38;;;;;;;6.80;3.72;;;15.60;99.90;;;;;;4999386;28;20269;-94
2023/07/02 05:06:17;;;;;;;10.50;4.30;;;15.60;99.90;;;;;;4999072;28;20229;-96
2023/07/02 05:08:44;;;;;;;5.68;3.88;;;15.60;99.90;;;;;;4999390;28;20175;-94
2023/07/02 05:11:10;;;;;;;7.10;4.55;;;15.50;99.90;;;;;;4999847;28;20186;-95
2023/07/02 05:13:36;;;;;;;11.32;4.75;;;15.50;99.90;;;;;;4997405;28;20179;-94
2023/07/02 05:16:10;;;;;;;8.38;4.60;;;15.60;99.90;;;;;;4999327;28;20627;-94
2023/07/02 05:18:36;;;;;;;7.55;4.78;;;15.60;99.90;;;;;;5000114;28;20181;-92
2023/07/02 05:21:19;;;;;;;8.57;4.97;;;15.60;99.90;;;;;;5000871;28;20274;-94
2023/07/02 05:23:45;;;;;;;8.32;5.30;;;15.60;99.90;;;;;;5001203;28;20179;-92
2023/07/02 05:26:10;;;;;;;11.52;4.78;;;15.70;99.90;;;;;;4999250;28;20628;-93
2023/07/02 05:28:45;;;;;;;11.18;5.63;;;15.60;99.90;;;;;;4999689;28;20234;-96
2023/07/02 05:31:14;;;;;;;10.35;5.28;;;15.70;99.90;;;;;;4998162;28;20166;-95
2023/07/02 05:33:57;;;;;;;8.90;5.35;;;15.60;99.90;;;;;;5000533;28;20183;-92
2023/07/02 05:36:31;;;;;;;9.23;5.57;;;15.70;99.90;;;;;;5006248;28;20301;-93
2023/07/02 05:38:57;;;;;;;7.78;5.65;;;15.70;99.90;;;;;;5005257;28;20175;-96
2023/07/02 05:41:23;;;;;;;7.63;5.60;;;15.70;99.90;;;;;;5003359;28;20175;-96
2023/07/02 05:43:49;;;;;;;9.02;5.43;;;15.70;99.90;;;;;;5000378;28;20179;-96
2023/07/02 05:46:21;;;;;;;7.47;5.60;;;15.70;99.90;;;;;;5003986;28;20194;-92
2023/07/02 05:48:59;;;;;;;7.65;5.90;;;15.70;99.90;;;;;;5004045;28;20171;-96
2023/07/02 05:51:25;;;;;;;5.55;5.03;;;15.70;99.90;;;;;;4997894;28;20226;-94
2023/07/02 05:53:59;;;;;;;12.15;5.60;;;15.70;99.90;;;;;;5002304;28;20160;-96
2023/07/02 05:56:27;;;;;;;12.93;5.72;;;15.70;99.90;;;;;;5006157;28;20198;-96
2023/07/02 05:59:11;;;;;;;10.15;5.40;;;15.70;99.90;;;;;;5005088;28;20179;-96
2023/07/02 06:01:37;;;;;;;10.70;5.90;;;15.80;99.90;;;;;;5022697;28;20313;-96
2023/07/02 06:04:12;;;;;;;8.77;5.90;;;15.80;99.90;;;;;;5008060;28;20214;-96
2023/07/02 06:17:43;;;;;;;11.65;5.43;;;15.80;99.90;;;;;;4986037;28;20704;-96
2023/07/02 06:20:12;;;;;;;8.23;5.38;;;15.90;99.90;;;;;;4972439;28;20177;-95
2023/07/02 06:22:45;;;;;;;9.15;4.80;;;15.90;99.90;;;;;;4973343;28;20165;-96
2023/07/02 06:25:15;;;;;;;13.63;5.35;;;16.00;99.90;;;;;;4985537;28;20196;-94
2023/07/02 06:27:42;;;;;;;10.60;5.05;;;16.00;99.90;;;;;;4989834;28;20180;-95
2023/07/02 06:30:26;;;;;;;10.68;5.30;;;16.10;99.90;;;;;;4991508;28;20183;-96
2023/07/02 06:33:04;;;;;;;16.83;5.20;;;16.10;99.90;;;;;;4989270;28;20176;-94
2023/07/02 06:35:33;;;;;;;10.63;5.00;;;16.20;99.90;;;;;;4985583;28;20215;-96
2023/07/02 06:38:58;;;;;;;;;;;;;;;;;;;;;
2023/07/02 06:41:41;;;;;;;8.50;5.22;;;16.50;99.90;;;;;;5009450;28;20226;-97
2023/07/02 06:44:13;;;;;;;9.95;5.10;;;16.50;99.90;;;;;;5000719;28;20202;-96
2023/07/02 06:50:36;;;;;;;11.82;5.18;;;16.50;99.90;;;;;;5032861;23;20239;-96
2023/07/02 06:53:10;;;;;;;9.40;5.22;;;16.70;99.90;;;;;;5011543;28;20214;-95
2023/07/02 06:55:35;;;;;;;11.52;5.35;;;16.70;99.90;;;;;;5018964;28;20194;-93
2023/07/02 06:58:14;;;;;;;11.68;5.45;;;16.90;99.90;;;;;;5014680;28;20191;-95
2023/07/02 07:00:49;;;;;;;19.33;5.13;;;17.10;99.90;;;;;;5017112;28;20602;-96
2023/07/02 07:03:18;;;;;;;11.63;5.38;;;17.30;99.90;;;;;;5003014;28;20187;-94
2023/07/02 07:05:44;;;;;;;18.40;5.60;;;17.40;99.90;;;;;;5015717;28;20172;-94
2023/07/02 07:08:10;;;;;;;15.85;5.57;;;17.50;99.90;;;;;;5008789;28;20186;-95
2023/07/02 07:10:40;;;;;;;15.88;5.35;;;17.70;99.90;;;;;;5020703;28;20179;-95
2023/07/02 07:13:11;;;;;;;13.10;5.80;;;17.90;99.90;;;;;;5022264;28;20175;-96
2023/07/02 07:15:39;;;;;;;14.32;5.43;;;18.00;99.90;;;;;;5019084;28;20186;-93
2023/07/02 07:18:08;;;;;;;16.70;5.55;;;18.00;99.90;;;;;;5002707;28;20266;-94
2023/07/02 07:20:41;;;;;;;13.77;5.70;;;18.10;99.90;;;;;;5002394;28;20188;-94
2023/07/02 07:23:12;;;;;;;15.80;5.70;;;18.00;99.90;;;;;;5013477;28;20221;-96
2023/07/02 07:25:41;;;;;;;12.32;4.95;;;18.20;99.90;;;;;;5021613;28;20197;-95
2023/07/02 07:28:15;;;;;;;13.30;5.35;;;18.40;99.90;;;;;;5022337;28;20191;-96
2023/07/02 07:30:41;;;;;;;13.38;5.40;;;18.50;99.90;;;;;;5021355;28;20177;-95
2023/07/02 07:33:10;;;;;;;12.52;5.53;;;18.60;99.90;;;;;;5019640;28;20266;-91
2023/07/02 07:35:39;;;;;;;13.52;5.65;;;18.60;99.90;;;;;;5016932;28;20186;-93
2023/07/02 07:38:04;;;;;;;15.00;6.40;;;18.60;99.90;;;;;;5020122;28;20635;-93
2023/07/02 07:40:30;;;;;;;22.98;6.35;;;18.60;99.90;;;;;;5009268;28;20175;-92
2023/07/02 07:42:56;;;;;;;13.65;5.80;;;18.80;99.90;;;;;;5013711;28;20186;-93
2023/07/02 07:45:22;;;;;;;14.27;5.70;;;18.80;99.90;;;;;;5012381;28;20189;-95
2023/07/02 07:47:49;;;;;;;13.48;5.80;;;18.90;99.90;;;;;;5037741;28;20516;-94
2023/07/02 07:50:22;;;;;;;15.65;6.00;;;18.90;99.90;;;;;;5011712;28;20222;-92
2023/07/02 07:53:06;;;;;;;16.92;5.43;;;19.00;99.90;;;;;;5013240;28;20183;-95
2023/07/02 07:55:35;;;;;;;21.65;6.55;;;19.00;99.90;;;;;;5020282;28;20186;-96
2023/07/02 07:58:05;;;;;;;11.52;5.35;;;19.20;99.90;;;;;;5018330;28;20210;-91
2023/07/02 08:00:30;;;;;;;13.02;5.35;;;19.30;99.90;;;;;;5019201;28;20180;-90
2023/07/02 08:02:56;;;;;;;14.88;6.22;;;19.20;99.90;;;;;;5004640;28;20175;-94
2023/07/02 08:05:23;;;;;;;15.70;6.00;;;19.00;99.90;;;;;;5006570;28;20190;-94
2023/07/02 08:07:51;;;;;;;13.43;6.07;;;18.90;99.90;;;;;;5015759;28;20520;-94
2023/07/02 08:10:16;;;;;;;13.68;5.72;;;18.80;99.90;;;;;;5014953;28;20251;-89
2023/07/02 08:12:42;;;;;;;17.13;6.82;;;18.80;99.90;;;;;;5015590;28;20186;-89
2023/07/02 08:15:08;;;;;;;12.30;6.30;;;18.90;99.90;;;;;;4999086;28;20179;-89
2023/07/02 08:17:34;;;;;;;20.10;6.55;;;19.00;99.90;;;;;;4997817;28;20207;-91
2023/07/02 08:20:00;;;;;;;11.50;5.40;;;19.00;99.90;;;;;;4999052;28;20688;-92
2023/07/02 08:22:25;;;;;;;12.40;5.63;;;19.10;99.90;;;;;;4999028;28;20206;-88
2023/07/02 08:24:51;;;;;;;18.38;6.30;;;19.20;99.90;;;;;;4998802;28;20606;-92
2023/07/02 08:27:20;;;;;;;12.05;5.40;;;19.20;99.90;;;;;;5008957;28;20182;-96
2023/07/02 08:29:48;;;;;;;14.45;5.93;;;19.00;99.90;;;;;;5017764;28;20560;-90
2023/07/02 08:32:14;;;;;;;14.82;6.03;;;18.90;99.90;;;;;;5018033;28;20174;-89
2023/07/02 08:34:39;;;;;;;14.95;6.40;;;18.70;99.90;;;;;;5018355;28;20174;-89
2023/07/02 08:37:05;;;;;;;12.95;6.00;;;18.70;99.90;;;;;;5017784;28;20534;-94
2023/07/02 08:39:40;;;;;;;11.65;5.72;;;19.00;99.90;;;;;;5017980;28;20183;-87
2023/07/02 08:42:07;;;;;;;14.60;6.38;;;19.30;99.90;;;;;;5017614;28;20642;-88
2023/07/02 08:44:33;;;;;;;12.55;5.65;;;19.50;99.90;;;;;;5017844;28;20178;-91
2023/07/02 08:46:59;;;;;;;15.95;6.13;;;19.70;99.90;;;;;;5017989;28;20175;-95
2023/07/02 08:49:25;;;;;;;13.27;5.35;;;19.90;99.90;;;;;;5017644;28;20215;-88
2023/07/02 08:51:51;;;;;;;13.80;5.70;;;20.00;99.90;;;;;;5017315;28;20565;-93
2023/07/02 08:54:20;;;;;;;13.95;5.93;;;19.80;99.90;;;;;;5006207;28;20182;-91
2023/07/02 08:56:46;;;;;;;13.02;5.85;;;19.80;99.90;;;;;;5005044;28;20202;-88
2023/07/02 08:59:13;;;;;;;16.70;6.57;;;19.70;99.90;;;;;;5016612;28;20182;-89
2023/07/02 09:02:06;;;;;;;14.48;6.30;;;19.60;99.90;;;;;;5017224;28;20194;-90
2023/07/02 09:04:31;;;;;;;17.48;6.32;;;19.40;99.90;;;;;;5014597;28;20191;-88
2023/07/02 09:07:11;;;;;;;17.60;6.25;;;19.50;99.90;;;;;;5017496;28;20177;-90
2023/07/02 09:09:53;;;;;;;11.65;5.63;;;19.40;99.90;;;;;;5016845;28;20182;-89
2023/07/02 09:12:28;;;;;;;16.48;5.93;;;19.70;99.90;;;;;;5016594;28;20249;-88
2023/07/02 09:14:57;;;;;;;14.73;6.13;;;19.80;99.90;;;;;;5017160;28;20174;-90
2023/07/02 09:17:30;;;;;;;16.88;5.97;;;20.10;99.90;;;;;;5017262;28;20233;-91
2023/07/02 09:20:02;;;;;;;16.17;6.60;;;20.20;99.90;;;;;;5017652;28;20177;-89
2023/07/02 09:22:28;;;;;;;15.20;6.35;;;20.20;99.90;;;;;;5017269;28;20170;-90
2023/07/02 09:24:57;;;;;;;15.77;6.93;;;20.30;99.90;;;;;;5017102;28;20202;-87
2023/07/02 09:27:36;;;;;;;14.20;6.00;;;20.30;99.90;;;;;;5017351;28;20636;-94
2023/07/02 09:30:13;;;;;;;12.55;5.80;;;20.40;99.90;;;;;;5021873;28;20181;-95
2023/07/02 09:32:42;;;;;;;18.65;5.85;;;20.40;99.90;;;;;;5022135;28;20178;-93
2023/07/02 09:35:11;;;;;;;15.13;6.10;;;20.50;99.90;;;;;;5021951;28;20269;-92
2023/07/02 09:37:41;;;;;;;16.15;6.65;;;20.60;99.60;;;;;;5021036;28;20217;-93
2023/07/02 09:40:10;;;;;;;13.32;6.72;;;20.70;99.90;;;;;;5021929;28;20514;-92
2023/07/02 09:42:38;;;;;;;16.77;6.25;;;20.50;99.90;;;;;;5023430;28;20175;-96
2023/07/02 09:45:08;;;;;;;15.50;6.28;;;20.60;99.90;;;;;;5022438;28;20218;-91
2023/07/02 09:47:37;;;;;;;15.15;6.50;;;20.60;99.90;;;;;;5022510;28;20221;-90
2023/07/02 09:50:08;;;;;;;14.68;6.38;;;20.60;99.90;;;;;;5017494;28;20670;-92
2023/07/02 09:52:35;;;;;;;13.95;6.13;;;20.80;99.90;;;;;;5018285;28;20602;-90
2023/07/02 09:55:01;;;;;;;11.90;6.07;;;20.90;98.00;;;;;;5018054;28;20187;-94
2023/07/02 09:57:31;;;;;;;12.07;5.68;;;20.80;99.10;;;;;;5018193;28;20242;-91
2023/07/02 10:00:00;;;;;;;14.40;6.03;;;20.70;99.00;;;;;;5019213;28;20522;-90
2023/07/02 10:02:26;;;;;;;10.70;5.68;;;20.50;99.60;;;;;;5018583;28;20187;-93
2023/07/02 10:04:54;;;;;;;15.45;6.40;;;20.50;99.40;;;;;;5017741;28;20182;-91
2023/07/02 10:07:32;;;;;;;12.57;5.93;;;20.70;99.70;;;;;;5018481;28;20183;-91
2023/07/02 10:09:58;;;;;;;13.90;6.28;;;20.80;98.40;;;;;;5019083;28;20163;-93
2023/07/02 10:12:26;;;;;;;16.00;6.55;;;20.70;98.00;;;;;;5017864;28;20195;-91
2023/07/02 10:14:54;;;;;;;16.77;5.97;;;20.60;99.90;;;;;;5018815;28;20176;-90
2023/07/02 10:17:38;;;;;;;13.32;6.25;;;20.40;98.10;;;;;;5018685;28;20242;-92
2023/07/02 10:20:11;;;;;;;11.70;6.22;;;20.30;98.20;;;;;;5017396;28;20230;-94
2023/07/02 10:22:47;;;;;;;16.40;6.10;;;20.20;99.40;;;;;;5017895;28;20183;-93
2023/07/02 10:25:31;;;;;;;14.93;6.10;;;20.20;99.20;;;;;;5017529;28;20282;-92
2023/07/02 10:28:00;;;;;;;15.80;6.30;;;20.40;99.30;;;;;;5017709;28;20175;-91
2023/07/02 10:30:37;;;;;;;16.23;6.40;;;20.10;97.90;;;;;;5016578;28;20251;-89
2023/07/02 10:33:17;;;;;;;16.15;6.43;;;19.90;99.30;;;;;;5017510;28;20178;-92
2023/07/02 10:35:47;;;;;;;13.88;6.20;;;19.70;99.20;;;;;;5016672;28;20182;-90
2023/07/02 10:38:18;;;;;;;14.95;6.05;;;19.50;99.90;;;;;;5017444;28;20268;-92
2023/07/02 10:40:45;;;;;;;13.57;6.07;;;19.30;99.90;;;;;;5006240;28;20192;-90
2023/07/02 10:43:15;;;;;;;13.27;6.15;;;19.40;99.70;;;;;;5006657;28;20215;-92
2023/07/02 10:45:41;;;;;;;14.35;6.45;;;19.60;99.90;;;;;;5003463;28;20194;-90
2023/07/02 10:48:11;;;;;;;15.75;6.10;;;19.90;99.80;;;;;;5002247;28;20269;-89
2023/07/02 10:50:41;;;;;;;16.08;6.05;;;20.30;99.90;;;;;;4995893;28;20690;-96
2023/07/02 10:53:18;;;;;;;15.35;6.35;;;20.50;99.40;;;;;;5012487;28;20191;-89
2023/07/02 10:55:44;;;;;;;14.10;6.28;;;20.70;99.60;;;;;;5004854;28;20187;-95
2023/07/02 10:58:14;;;;;;;13.68;6.45;;;20.70;99.90;;;;;;4995754;28;20202;-92
2023/07/02 11:00:47;;;;;;;14.80;6.25;;;20.60;99.90;;;;;;4989297;28;20283;-88
2023/07/02 11:03:30;;;;;;;12.68;6.40;;;20.30;99.20;;;;;;5004222;28;20195;-88
2023/07/02 11:05:58;;;;;;;15.07;5.80;;;20.10;97.40;;;;;;4998510;28;20214;-90
2023/07/02 11:08:40;;;;;;;13.75;6.60;;;19.90;97.80;;;;;;4997753;28;20188;-94
2023/07/02 11:15:21;;;;;;;18.73;7.30;;;20.10;98.20;;;;;;5007399;28;20238;-91
2023/07/02 11:18:22;;;;;;;14.02;6.57;;;20.10;99.90;;;;;;5000013;28;20291;-94
2023/07/02 11:21:10;;;;;;;13.38;6.63;;;20.40;99.90;;;;;;5001171;28;20191;-95
2023/07/02 11:23:37;;;;;;;15.35;6.63;;;20.80;99.90;;;;;;4999838;28;20214;-93
2023/07/02 11:26:03;;;;;;;11.10;5.70;;;21.10;97.80;;;;;;5004069;28;20222;-95
2023/07/02 11:28:31;;;;;;;20.25;5.97;;;21.30;98.00;;;;;;5015410;28;20676;-90
2023/07/02 11:31:02;;;;;;;18.15;6.43;;;21.60;97.70;;;;;;5015853;28;20180;-96
2023/07/02 11:33:38;;;;;;;11.55;6.10;;;21.40;95.10;;;;;;5016113;28;20183;-93
2023/07/02 11:36:05;;;;;;;9.68;5.22;;;21.10;94.80;;;;;;5015997;28;20261;-91
2023/07/02 11:38:31;;;;;;;12.57;6.13;;;20.90;96.80;;;;;;5016035;28;20187;-89
2023/07/02 11:41:06;;;;;;;13.18;5.28;;;21.00;96.70;;;;;;5016858;28;20179;-94
2023/07/02 11:43:32;;;;;;;10.45;5.57;;;21.10;98.20;;;;;;5016698;28;20189;-94
2023/07/02 11:45:59;;;;;;;12.07;5.60;;;21.20;97.80;;;;;;5017168;28;20198;-94
2023/07/02 11:48:25;;;;;;;16.00;5.47;;;21.40;97.40;;;;;;5017247;28;20179;-90
2023/07/02 11:50:55;;;;;;;11.93;5.20;;;21.30;97.20;;;;;;5017055;28;20253;-96
2023/07/02 11:53:20;;;;;;;12.07;5.60;;;21.30;96.10;;;;;;5014988;28;20237;-91
2023/07/02 11:55:46;;;;;;;13.23;5.93;;;21.30;95.80;;;;;;5015248;28;20183;-90
2023/07/02 11:58:12;;;;;;;12.63;5.68;;;21.50;96.70;;;;;;5016011;28;20187;-94
2023/07/02 12:00:37;;;;;;;12.32;5.25;;;21.80;97.30;;;;;;5015976;28;20179;-89
2023/07/02 12:03:04;;;;;;;15.68;5.63;;;21.90;95.90;;;;;;5015248;28;20247;-88
2023/07/02 12:05:29;;;;;;;13.15;5.47;;;22.00;98.10;;;;;;5015444;28;20183;-91
2023/07/02 12:07:55;;;;;;;16.02;5.50;;;21.60;94.90;;;;;;5015712;28;20183;-89
2023/07/02 12:10:21;;;;;;;15.50;5.72;;;21.10;96.00;;;;;;5015099;28;20214;-91
2023/07/02 12:12:49;;;;;;;16.00;5.65;;;20.90;98.00;;;;;;5015239;28;20190;-94
2023/07/02 12:15:15;;;;;;;11.32;5.40;;;20.90;97.20;;;;;;5015863;28;20514;-96
2023/07/02 12:17:40;;;;;;;12.50;5.00;;;21.00;97.60;;;;;;5015525;28;20221;-91
2023/07/02 12:20:07;;;;;;;10.73;5.13;;;21.20;98.70;;;;;;5014731;28;20179;-92
2023/07/02 12:22:32;;;;;;;10.35;5.45;;;21.40;97.80;;;;;;5015077;28;20206;-95
2023/07/02 12:24:58;;;;;;;13.52;5.30;;;21.50;93.90;;;;;;5015312;28;20207;-89
2023/07/02 12:27:26;;;;;;;12.73;5.05;;;21.60;96.40;;;;;;5015350;28;20180;-90
2023/07/02 12:29:52;;;;;;;10.85;5.20;;;21.70;95.90;;;;;;5015572;28;20187;-90
2023/07/02 12:32:18;;;;;;;8.60;5.20;;;21.90;97.10;;;;;;5015270;28;20225;-88
2023/07/02 12:34:44;;;;;;;15.98;5.38;;;22.00;96.20;;;;;;5016345;28;20190;-90
2023/07/02 12:37:10;;;;;;;13.93;5.70;;;21.70;94.10;;;;;;5015150;28;20951;-92
2023/07/02 12:39:35;;;;;;;11.55;5.25;;;21.40;96.70;;;;;;5017426;28;20179;-96
2023/07/02 12:42:03;;;;;;;11.82;5.35;;;21.20;96.10;;;;;;5019209;28;20258;-93
2023/07/02 12:44:29;;;;;;;14.13;5.63;;;21.40;97.50;;;;;;5003989;28;20617;-93
2023/07/02 12:46:55;;;;;;;11.07;4.80;;;21.70;96.00;;;;;;5018178;28;20179;-92
2023/07/02 12:49:23;;;;;;;15.30;4.90;;;21.80;95.00;;;;;;5019821;28;20249;-96
2023/07/02 12:51:49;;;;;;;10.95;5.10;;;21.60;95.10;;;;;;5015908;28;20235;-95
2023/07/02 12:54:15;;;;;;;12.82;5.25;;;21.30;93.10;;;;;;5016485;28;20606;-93
2023/07/02 12:56:43;;;;;;;12.18;5.25;;;20.90;93.90;;;;;;5015949;28;20215;-95
2023/07/02 12:59:09;;;;;;;8.50;4.95;;;20.80;95.40;;;;;;5015058;28;20652;-95
2023/07/02 13:01:38;;;;;;;12.82;5.10;;;20.60;95.90;;;;;;5015868;28;20214;-92
2023/07/02 13:04:04;;;;;;;13.75;4.80;;;20.60;96.80;;;;;;5015026;28;20179;-92
2023/07/02 13:06:34;;;;;;;13.10;5.10;;;20.80;96.00;;;;;;5018843;28;20270;-95
2023/07/02 13:09:03;;;;;;;11.65;5.28;;;20.90;96.30;;;;;;5017302;28;20179;-96
2023/07/02 13:11:29;;;;;;;9.65;5.00;;;21.20;97.10;;;;;;5017545;28;20290;-94